createdAt,value
2023-03-12T00:00:57.445Z,3.43
2023-03-12T00:02:30.072Z,3.33
2023-03-12T00:04:02.543Z,3.90
2023-03-12T00:05:37.341Z,3.17
2023-03-12T00:07:09.302Z,3.50
2023-03-12T00:08:41.278Z,3.40
2023-03-12T00:10:13.066Z,3.23
2023-03-12T00:11:44.778Z,3.00
2023-03-12T00:13:16.478Z,3.37
2023-03-12T00:14:48.138Z,2.63
2023-03-12T00:16:20.837Z,3.00
2023-03-12T00:17:53.731Z,2.70
2023-03-12T00:19:25.774Z,3.10
2023-03-12T00:20:57.550Z,2.80
2023-03-12T00:22:29.294Z,2.67
2023-03-12T00:24:01.069Z,2.60
2023-03-12T00:25:32.965Z,2.47
2023-03-12T00:27:04.679Z,3.00
2023-03-12T00:28:37.422Z,2.63
2023-03-12T00:30:10.682Z,2.53
2023-03-12T00:31:42.459Z,2.60
2023-03-12T00:33:14.217Z,3.53
2023-03-12T00:34:51.758Z,3.43
2023-03-12T00:36:26.868Z,3.50
2023-03-12T00:37:58.600Z,3.20
2023-03-12T00:39:30.267Z,3.80
2023-03-12T00:41:02.089Z,3.40
2023-03-12T00:42:33.869Z,3.60
2023-03-12T00:44:06.667Z,3.50
2023-03-12T00:45:38.376Z,4.00
2023-03-12T00:47:10.605Z,3.50
2023-03-12T00:48:42.479Z,3.70
2023-03-12T00:50:14.180Z,3.40
2023-03-12T00:51:46.006Z,3.13
2023-03-12T00:53:17.746Z,3.27
2023-03-12T00:54:49.558Z,3.10
2023-03-12T00:56:21.376Z,3.57
2023-03-12T00:57:53.115Z,3.57
2023-03-12T00:59:24.899Z,3.10
2023-03-12T01:00:56.671Z,3.33
2023-03-12T01:02:28.408Z,3.67
2023-03-12T01:04:01.257Z,3.50
2023-03-12T01:05:37.543Z,3.20
2023-03-12T01:07:09.567Z,2.87
2023-03-12T01:08:41.279Z,2.90
2023-03-12T01:10:17.389Z,3.00
2023-03-12T01:11:50.864Z,3.30
2023-03-12T01:13:22.753Z,3.57
2023-03-12T01:14:54.477Z,2.93
2023-03-12T01:16:29.957Z,3.40
2023-03-12T01:18:01.702Z,2.93
2023-03-12T01:19:33.441Z,3.63
2023-03-12T01:21:05.535Z,2.73
2023-03-12T01:22:37.582Z,3.00
2023-03-12T01:24:09.378Z,2.97
2023-03-12T01:25:41.515Z,3.30
2023-03-12T01:27:13.428Z,2.90
2023-03-12T01:28:45.422Z,2.80
2023-03-12T01:30:17.231Z,3.50
2023-03-12T01:31:49.056Z,2.60
2023-03-12T01:33:22.738Z,2.60
2023-03-12T01:34:54.607Z,2.63
2023-03-12T01:36:29.561Z,3.00
2023-03-12T01:38:01.286Z,2.60
2023-03-12T01:39:33.001Z,2.57
2023-03-12T01:41:04.760Z,2.40
2023-03-12T01:42:36.408Z,2.60
2023-03-12T01:44:12.896Z,3.13
2023-03-12T01:45:56.686Z,2.77
2023-03-12T01:47:31.883Z,3.20
2023-03-12T01:49:42.780Z,2.50
2023-03-12T01:51:17.571Z,2.50
2023-03-12T01:52:49.310Z,2.60
2023-03-12T01:54:29.850Z,3.10
2023-03-12T01:56:02.533Z,2.60
2023-03-12T01:57:38.153Z,2.80
2023-03-12T01:59:17.703Z,2.97
2023-03-12T02:00:49.592Z,2.70
2023-03-12T02:02:24.874Z,3.00
2023-03-12T02:03:59.828Z,3.00
2023-03-12T02:06:03.474Z,3.47
2023-03-12T02:07:35.471Z,2.80
2023-03-12T02:09:08.101Z,2.80
2023-03-12T02:10:39.910Z,2.87
2023-03-12T02:12:12.352Z,3.20
2023-03-12T02:13:44.600Z,2.87
2023-03-12T02:15:16.801Z,3.30
2023-03-12T02:16:49.119Z,2.70
2023-03-12T02:18:21.567Z,3.57
2023-03-12T02:20:00.311Z,2.90
2023-03-12T02:21:35.165Z,3.33
2023-03-12T02:23:13.113Z,2.93
2023-03-12T02:25:01.990Z,3.10
2023-03-12T02:26:35.849Z,3.57
2023-03-12T02:28:12.729Z,3.03
2023-03-12T02:29:45.719Z,3.37
2023-03-12T02:31:23.992Z,3.10
2023-03-12T02:32:56.575Z,3.07
2023-03-12T02:34:28.472Z,3.27
2023-03-12T02:36:00.316Z,3.30
2023-03-12T02:37:32.408Z,2.43
2023-03-12T02:39:05.832Z,3.17
2023-03-12T02:40:43.791Z,3.20
2023-03-12T02:42:16.044Z,3.10
2023-03-12T02:43:56.859Z,3.37
2023-03-12T02:45:30.739Z,3.30
2023-03-12T02:47:03.003Z,2.70
2023-03-12T02:48:34.771Z,3.17
2023-03-12T02:50:07.239Z,3.27
2023-03-12T02:51:40.372Z,3.70
2023-03-12T02:53:12.058Z,3.20
2023-03-12T02:54:43.966Z,3.30
2023-03-12T02:56:16.193Z,3.30
2023-03-12T02:57:48.034Z,3.17
2023-03-12T02:59:21.745Z,3.37
2023-03-12T03:00:56.445Z,3.67
2023-03-12T03:02:28.193Z,3.03
2023-03-12T03:04:01.420Z,3.50
2023-03-12T03:05:33.464Z,3.17
2023-03-12T03:07:05.482Z,3.20
2023-03-12T03:08:37.273Z,3.70
2023-03-12T03:10:10.440Z,3.03
2023-03-12T03:11:42.689Z,3.47
2023-03-12T03:13:15.030Z,3.30
2023-03-12T03:14:46.750Z,3.00
2023-03-12T03:16:18.658Z,3.70
2023-03-12T03:17:50.390Z,3.20
2023-03-12T03:19:22.098Z,3.20
2023-03-12T03:20:59.164Z,4.37
2023-03-12T03:22:30.950Z,3.43
2023-03-12T03:24:03.063Z,3.13
2023-03-12T03:25:34.817Z,3.83
2023-03-12T03:27:06.716Z,3.20
2023-03-12T03:28:38.604Z,3.50
2023-03-12T03:30:11.948Z,3.57
2023-03-12T03:31:47.716Z,3.70
2023-03-12T03:33:19.558Z,3.30
2023-03-12T03:34:51.336Z,4.00
2023-03-12T03:36:23.543Z,3.27
2023-03-12T03:38:04.646Z,3.77
2023-03-12T03:39:36.644Z,3.77
2023-03-12T03:41:08.884Z,3.80
2023-03-12T03:42:46.129Z,3.13
2023-03-12T03:44:18.714Z,3.80
2023-03-12T03:46:10.406Z,3.47
2023-03-12T03:47:45.137Z,3.70
2023-03-12T03:49:17.413Z,3.37
2023-03-12T03:50:49.323Z,4.20
2023-03-12T03:52:21.172Z,4.00
2023-03-12T03:53:53.086Z,3.73
2023-03-12T03:55:25.688Z,4.00
2023-03-12T03:56:57.466Z,3.47
2023-03-12T03:58:29.193Z,3.60
2023-03-12T04:00:03.685Z,3.43
2023-03-12T04:01:45.417Z,3.77
2023-03-12T04:03:17.353Z,4.20
2023-03-12T04:04:49.373Z,3.70
2023-03-12T04:06:21.139Z,3.70
2023-03-12T04:07:53.729Z,3.80
2023-03-12T04:09:28.108Z,3.97
2023-03-12T04:10:59.835Z,4.20
2023-03-12T04:12:31.592Z,3.80
2023-03-12T04:14:03.677Z,3.67
2023-03-12T04:15:37.782Z,4.27
2023-03-12T04:17:09.717Z,4.10
2023-03-12T04:18:42.017Z,3.60
2023-03-12T04:20:14.256Z,3.50
2023-03-12T04:21:46.795Z,3.40
2023-03-12T04:23:18.547Z,3.73
2023-03-12T04:24:50.309Z,3.13
2023-03-12T04:26:22.106Z,3.50
2023-03-12T04:27:53.941Z,3.70
2023-03-12T04:29:26.164Z,3.37
2023-03-12T04:31:00.912Z,4.00
2023-03-12T04:32:37.543Z,3.70
2023-03-12T04:34:11.394Z,3.50
2023-03-12T04:35:51.748Z,3.87
2023-03-12T04:37:24.414Z,4.33
2023-03-12T04:38:56.662Z,3.80
2023-03-12T04:40:32.788Z,3.47
2023-03-12T04:42:05.411Z,3.60
2023-03-12T04:43:37.240Z,3.40
2023-03-12T04:45:11.295Z,3.03
2023-03-12T04:46:46.280Z,3.30
2023-03-12T04:48:21.674Z,3.13
2023-03-12T04:49:55.644Z,3.20
2023-03-12T04:51:28.111Z,3.20
2023-03-12T04:52:59.920Z,3.33
2023-03-12T04:54:33.069Z,3.90
2023-03-12T04:56:05.778Z,3.30
2023-03-12T04:57:38.064Z,3.50
2023-03-12T04:59:10.271Z,3.23
2023-03-12T05:00:42.835Z,3.50
2023-03-12T05:02:14.665Z,3.70
2023-03-12T05:03:47.193Z,3.40
2023-03-12T05:05:19.397Z,3.60
2023-03-12T05:06:51.131Z,3.70
2023-03-12T05:08:23.026Z,3.60
2023-03-12T05:09:55.016Z,3.40
2023-03-12T05:11:26.862Z,3.23
2023-03-12T05:12:58.818Z,3.10
2023-03-12T05:14:30.764Z,3.03
2023-03-12T05:16:03.389Z,3.37
2023-03-12T05:17:36.082Z,3.43
2023-03-12T05:19:08.669Z,3.83
2023-03-12T05:20:40.658Z,3.13
2023-03-12T05:22:12.366Z,3.17
2023-03-12T05:23:44.578Z,3.63
2023-03-12T05:25:17.159Z,3.50
2023-03-12T05:26:48.966Z,3.40
2023-03-12T05:28:27.809Z,2.97
2023-03-12T05:30:01.726Z,3.53
2023-03-12T05:31:35.329Z,3.27
2023-03-12T05:33:09.026Z,3.30
2023-03-12T05:34:40.759Z,3.27
2023-03-12T05:36:13.376Z,3.20
2023-03-12T05:37:45.423Z,3.00
2023-03-12T06:04:05.745Z,3.30
2023-03-12T06:05:38.539Z,3.13
2023-03-12T06:07:10.313Z,3.40
2023-03-12T06:08:42.784Z,2.70
2023-03-12T06:10:15.826Z,2.87
2023-03-12T06:11:49.341Z,3.33
2023-03-12T06:13:22.598Z,3.37
2023-03-12T06:14:54.317Z,3.20
2023-03-12T06:16:27.787Z,3.00
2023-03-12T06:17:59.688Z,2.70
2023-03-12T06:19:31.527Z,3.20
2023-03-12T06:21:17.093Z,2.50
2023-03-12T06:22:49.925Z,2.83
2023-03-12T06:24:21.650Z,3.20
2023-03-12T06:25:59.239Z,2.63
2023-03-12T06:27:31.396Z,2.97
2023-03-12T06:29:03.234Z,2.73
2023-03-12T06:30:34.900Z,2.50
2023-03-12T06:32:07.330Z,2.60
2023-03-12T06:33:39.301Z,2.90
2023-03-12T06:35:11.005Z,2.67
2023-03-12T06:36:42.735Z,3.13
2023-03-12T06:38:14.454Z,2.73
2023-03-12T06:39:46.203Z,2.57
2023-03-12T06:41:20.302Z,3.00
2023-03-12T06:42:52.105Z,3.00
2023-03-12T06:44:23.858Z,2.60
2023-03-12T06:45:57.125Z,2.87
2023-03-12T06:47:28.850Z,3.00
2023-03-12T06:49:00.693Z,2.30
2023-03-12T06:50:32.385Z,3.07
2023-03-12T06:52:04.586Z,2.97
2023-03-12T06:53:36.762Z,2.60
2023-03-12T06:55:08.704Z,2.97
2023-03-12T06:56:40.681Z,2.53
2023-03-12T06:58:12.837Z,2.60
2023-03-12T06:59:50.433Z,2.20
2023-03-12T07:01:22.643Z,2.97
2023-03-12T07:02:54.303Z,2.50
2023-03-12T07:04:26.124Z,2.93
2023-03-12T07:05:58.978Z,2.50
2023-03-12T07:07:30.845Z,2.60
2023-03-12T07:09:02.644Z,2.70
2023-03-12T07:10:34.361Z,2.87
2023-03-12T07:12:06.377Z,2.90
2023-03-12T07:13:38.131Z,2.40
2023-03-12T07:15:10.665Z,2.80
2023-03-12T07:16:42.498Z,2.63
2023-03-12T07:18:14.914Z,2.37
2023-03-12T07:19:48.774Z,2.47
2023-03-12T07:21:23.598Z,3.30
2023-03-12T07:22:55.335Z,2.90
2023-03-12T07:24:27.047Z,2.87
2023-03-12T07:25:58.714Z,2.53
2023-03-12T07:27:30.713Z,2.73
2023-03-12T07:29:03.600Z,2.50
2023-03-12T07:30:35.582Z,2.60
2023-03-12T07:32:07.323Z,2.67
2023-03-12T07:33:39.283Z,2.10
2023-03-12T07:35:11.207Z,2.77
2023-03-12T07:36:43.251Z,2.67
2023-03-12T07:38:15.181Z,2.43
2023-03-12T07:39:51.214Z,2.30
2023-03-12T07:41:23.124Z,2.60
2023-03-12T07:42:54.950Z,2.60
2023-03-12T07:44:26.742Z,2.50
2023-03-12T07:45:58.474Z,2.40
2023-03-12T07:47:30.873Z,2.60
2023-03-12T07:49:02.815Z,2.90
2023-03-12T07:50:35.743Z,2.87
2023-03-12T07:52:11.449Z,2.60
2023-03-12T07:53:43.244Z,3.10
2023-03-12T07:55:15.180Z,2.30
2023-03-12T07:56:47.010Z,3.20
2023-03-12T07:58:18.832Z,2.90
2023-03-12T07:59:50.770Z,3.50
2023-03-12T08:01:22.766Z,2.93
2023-03-12T08:02:54.978Z,2.83
2023-03-12T08:04:27.122Z,3.23
2023-03-12T08:06:01.394Z,2.63
2023-03-12T08:07:35.010Z,3.43
2023-03-12T08:09:06.769Z,2.97
2023-03-12T08:10:38.814Z,2.87
2023-03-12T08:12:10.615Z,2.30
2023-03-12T08:13:42.435Z,2.90
2023-03-12T08:15:14.843Z,3.20
2023-03-12T08:16:46.788Z,3.13
2023-03-12T08:18:19.621Z,2.93
2023-03-12T08:19:51.698Z,3.57
2023-03-12T08:21:23.459Z,2.87
2023-03-12T08:22:55.236Z,3.23
2023-03-12T08:24:26.993Z,2.63
2023-03-12T08:25:59.026Z,3.40
2023-03-12T08:27:30.980Z,2.77
2023-03-12T08:29:03.330Z,3.47
2023-03-12T08:30:35.019Z,3.27
2023-03-12T08:32:07.549Z,2.93
2023-03-12T08:33:43.282Z,3.00
2023-03-12T08:35:15.065Z,3.80
2023-03-12T08:36:46.733Z,2.90
2023-03-12T08:38:19.102Z,3.30
2023-03-12T08:39:51.052Z,2.93
2023-03-12T08:41:22.860Z,2.33
2023-03-12T08:42:54.570Z,2.93
2023-03-12T08:44:26.425Z,2.67
2023-03-12T08:46:00.535Z,3.10
2023-03-12T08:47:32.216Z,2.90
2023-03-12T08:49:04.089Z,3.27
2023-03-12T08:50:35.894Z,2.97
2023-03-12T08:52:07.721Z,2.83
2023-03-12T08:53:39.693Z,2.80
2023-03-12T08:55:12.294Z,3.00
2023-03-12T08:56:44.388Z,2.80
2023-03-12T08:58:16.057Z,3.10
2023-03-12T08:59:48.028Z,3.37
2023-03-12T09:01:19.757Z,2.90
2023-03-12T09:02:53.392Z,2.60
2023-03-12T09:04:25.367Z,2.70
2023-03-12T09:06:13.012Z,2.93
2023-03-12T09:07:44.685Z,2.40
2023-03-12T09:09:16.505Z,3.10
2023-03-12T09:10:49.993Z,3.20
2023-03-12T09:12:21.968Z,3.30
2023-03-12T09:14:42.676Z,3.10
2023-03-12T09:15:45.299Z,3.13
2023-03-12T09:17:17.741Z,3.20
2023-03-12T09:18:49.621Z,3.70
2023-03-12T09:20:22.636Z,3.80
2023-03-12T09:21:54.479Z,3.70
2023-03-12T09:23:27.419Z,3.33
2023-03-12T09:24:59.191Z,3.30
2023-03-12T09:26:30.922Z,3.50
2023-03-12T09:28:02.656Z,3.60
2023-03-12T09:29:34.434Z,3.00
2023-03-12T09:31:06.411Z,3.10
2023-03-12T09:32:38.543Z,3.03
2023-03-12T09:34:10.367Z,3.00
2023-03-12T09:35:43.004Z,3.10
2023-03-12T09:37:14.701Z,3.50
2023-03-12T09:38:47.002Z,2.90
2023-03-12T09:40:23.002Z,3.57
2023-03-12T09:41:54.740Z,3.10
2023-03-12T09:43:33.910Z,3.33
2023-03-12T09:45:07.329Z,3.20
2023-03-12T09:46:47.362Z,2.90
2023-03-12T09:48:36.464Z,3.13
2023-03-12T09:50:17.178Z,3.60
2023-03-12T09:51:55.301Z,3.20
2023-03-12T09:53:47.398Z,3.37
2023-03-12T09:55:21.813Z,2.80
2023-03-12T09:56:57.884Z,2.90
2023-03-12T09:58:32.898Z,3.00
2023-03-12T10:00:07.199Z,3.23
2023-03-12T10:01:57.655Z,3.00
2023-03-12T10:03:53.373Z,3.10
2023-03-12T10:05:50.857Z,3.17
2023-03-12T10:07:50.680Z,3.40
2023-03-12T10:09:43.100Z,3.57
2023-03-12T10:11:41.936Z,2.90
2023-03-12T10:13:54.616Z,3.53
2023-03-12T10:15:52.468Z,3.13
2023-03-12T10:18:02.644Z,3.00
2023-03-12T10:19:59.593Z,3.20
2023-03-12T10:21:55.593Z,3.37
2023-03-12T10:23:42.664Z,4.10
2023-03-12T10:25:17.127Z,3.40
2023-03-12T10:26:54.948Z,3.93
2023-03-12T10:28:47.795Z,4.40
2023-03-12T10:30:26.770Z,4.40
2023-03-12T10:32:13.594Z,4.20
2023-03-12T10:33:50.187Z,5.10
2023-03-12T10:35:24.676Z,4.53
2023-03-12T10:37:02.990Z,4.37
2023-03-12T10:38:34.655Z,5.73
2023-03-12T10:40:06.943Z,5.40
2023-03-12T10:41:41.675Z,6.50
2023-03-12T10:43:13.465Z,5.90
2023-03-12T10:44:49.054Z,6.30
2023-03-12T10:46:50.703Z,6.00
2023-03-12T10:48:25.061Z,5.80
2023-03-12T10:50:11.457Z,6.10
2023-03-12T10:52:12.410Z,6.73
2023-03-12T10:53:48.407Z,6.57
2023-03-12T10:55:22.616Z,6.97
2023-03-12T10:56:54.342Z,7.20
2023-03-12T10:58:26.559Z,8.50
2023-03-12T11:00:11.852Z,15.30
2023-03-12T11:01:50.122Z,23.30
2023-03-12T11:03:22.014Z,15.30
2023-03-12T11:04:54.209Z,14.40
2023-03-12T11:06:29.417Z,13.80
2023-03-12T11:08:02.986Z,14.20
2023-03-12T11:09:34.804Z,11.30
2023-03-12T11:11:06.537Z,10.90
2023-03-12T11:12:39.778Z,10.30
2023-03-12T11:14:19.298Z,9.97
2023-03-12T11:15:52.802Z,10.53
2023-03-12T11:17:28.539Z,9.30
2023-03-12T11:19:01.531Z,10.27
2023-03-12T11:20:33.328Z,10.33
2023-03-12T11:22:11.444Z,9.87
2023-03-12T11:23:57.221Z,10.70
2023-03-12T11:25:29.114Z,9.63
2023-03-12T11:27:40.920Z,10.63
2023-03-12T11:29:18.720Z,11.07
2023-03-12T11:30:53.290Z,11.40
2023-03-12T11:32:31.041Z,12.07
2023-03-12T11:34:14.580Z,13.98
2023-03-12T11:36:09.846Z,11.90
2023-03-12T11:38:11.633Z,11.93
2023-03-12T11:39:58.708Z,10.70
2023-03-12T11:41:45.516Z,11.57
2023-03-12T11:43:42.092Z,10.67
2023-03-12T11:45:28.931Z,10.50
2023-03-12T11:47:38.963Z,11.90
2023-03-12T11:49:26.389Z,10.20
2023-03-12T11:51:10.358Z,10.37
2023-03-12T11:53:09.837Z,10.77
2023-03-12T11:55:07.760Z,10.27
2023-03-12T11:56:54.039Z,11.30
2023-03-12T11:58:25.695Z,9.63
2023-03-12T12:00:13.992Z,11.00
2023-03-12T12:02:17.443Z,11.63
2023-03-12T12:04:28.129Z,12.40
2023-03-12T12:06:33.168Z,9.63
2023-03-12T12:08:43.508Z,10.70
2023-03-12T12:10:42.213Z,10.73
2023-03-12T12:12:32.574Z,11.17
2023-03-12T12:14:13.485Z,10.17
2023-03-12T12:16:16.220Z,10.20
2023-03-12T12:18:28.989Z,10.37
2023-03-12T12:20:11.119Z,11.00
2023-03-12T12:21:48.694Z,10.77
2023-03-12T12:23:36.884Z,10.67
2023-03-12T12:25:14.565Z,10.53
2023-03-12T12:27:16.173Z,11.43
2023-03-12T12:28:59.983Z,9.97
2023-03-12T12:30:58.824Z,10.27
2023-03-12T12:32:54.299Z,10.03
2023-03-12T12:34:32.006Z,10.03
2023-03-12T12:36:03.882Z,9.93
2023-03-12T12:37:50.630Z,9.07
2023-03-12T12:39:43.112Z,9.00
2023-03-12T12:41:25.918Z,10.10
2023-03-12T12:43:10.965Z,10.33
2023-03-12T12:44:49.187Z,9.50
2023-03-12T12:46:26.275Z,9.10
2023-03-12T12:48:10.919Z,9.33
2023-03-12T12:49:50.126Z,9.73
2023-03-12T12:51:29.018Z,8.63
2023-03-12T12:53:31.997Z,9.23
2023-03-12T12:55:15.943Z,8.80
2023-03-12T12:57:03.668Z,8.90
2023-03-12T12:58:45.830Z,7.90
2023-03-12T13:00:23.150Z,8.27
2023-03-12T13:01:57.182Z,7.83
2023-03-12T13:03:30.709Z,7.83
2023-03-12T13:05:02.624Z,8.60
2023-03-12T13:07:13.017Z,9.40
2023-03-12T13:08:47.442Z,8.50
2023-03-12T13:10:34.409Z,8.40
2023-03-12T13:12:18.617Z,7.73
2023-03-12T13:14:04.565Z,7.50
2023-03-12T13:15:40.667Z,7.93
2023-03-12T13:17:28.074Z,9.23
2023-03-12T13:19:21.073Z,7.27
2023-03-12T13:20:52.760Z,7.80
2023-03-12T13:22:51.560Z,7.53
2023-03-12T13:24:31.884Z,8.00
2023-03-12T13:26:30.701Z,7.60
2023-03-12T13:28:32.565Z,8.43
2023-03-12T13:30:34.874Z,7.43
2023-03-12T13:32:29.240Z,8.20
2023-03-12T13:34:21.290Z,7.40
2023-03-12T13:36:16.868Z,7.00
2023-03-12T13:37:51.466Z,6.93
2023-03-12T13:39:36.589Z,6.87
2023-03-12T13:41:08.534Z,6.70
2023-03-12T13:42:41.821Z,6.60
2023-03-12T13:44:36.961Z,7.20
2023-03-12T13:46:28.219Z,6.67
2023-03-12T13:48:03.132Z,7.50
2023-03-12T13:49:56.514Z,6.00
2023-03-12T13:51:28.752Z,5.60
2023-03-12T13:53:04.914Z,6.40
2023-03-12T13:54:43.808Z,6.20
2023-03-12T13:56:19.415Z,6.60
2023-03-12T13:57:55.460Z,5.83
2023-03-12T13:59:29.189Z,6.40
2023-03-12T14:01:07.373Z,5.83
2023-03-12T14:02:54.804Z,5.60
2023-03-12T14:04:38.610Z,5.50
2023-03-12T14:06:19.763Z,5.90
2023-03-12T14:08:03.386Z,6.07
2023-03-12T14:09:55.285Z,5.33
2023-03-12T14:12:08.700Z,5.20
2023-03-12T14:14:07.336Z,6.10
2023-03-12T14:15:57.030Z,5.93
2023-03-12T14:17:32.022Z,6.23
2023-03-12T14:19:04.822Z,5.50
2023-03-12T14:20:38.984Z,6.70
2023-03-12T14:22:13.060Z,6.40
2023-03-12T14:23:52.563Z,5.60
2023-03-12T14:25:39.565Z,5.70
2023-03-12T14:27:17.754Z,6.03
2023-03-12T14:29:14.209Z,5.63
2023-03-12T14:30:53.461Z,5.70
2023-03-12T14:32:31.406Z,5.37
2023-03-12T14:34:12.921Z,5.40
2023-03-12T14:36:09.490Z,5.17
2023-03-12T14:38:04.922Z,6.00
2023-03-12T14:39:45.087Z,6.13
2023-03-12T14:41:41.682Z,5.97
2023-03-12T14:43:31.622Z,5.37
2023-03-12T14:45:06.106Z,5.93
2023-03-12T14:46:46.998Z,6.20
2023-03-12T14:48:30.777Z,6.07
2023-03-12T14:50:03.380Z,5.73
2023-03-12T14:51:36.344Z,5.30
2023-03-12T14:53:20.959Z,6.00
2023-03-12T14:54:54.906Z,6.07
2023-03-12T14:56:30.439Z,5.97
2023-03-12T14:58:17.633Z,5.90
2023-03-12T14:59:57.460Z,5.47
2023-03-12T15:01:33.818Z,7.00
2023-03-12T15:03:14.839Z,4.90
2023-03-12T15:04:48.569Z,5.93
2023-03-12T15:06:29.265Z,5.27
2023-03-12T15:08:03.918Z,5.43
2023-03-12T15:09:36.928Z,5.10
2023-03-12T15:11:10.472Z,7.47
2023-03-12T15:12:45.314Z,5.27
2023-03-12T15:14:17.304Z,5.87
2023-03-12T15:15:52.396Z,6.13
2023-03-12T15:17:26.616Z,5.93
2023-03-12T15:18:58.928Z,5.30
2023-03-12T15:20:31.043Z,5.30
2023-03-12T15:22:04.447Z,5.67
2023-03-12T15:23:39.184Z,5.27
2023-03-12T15:25:29.273Z,5.20
2023-03-12T15:27:21.601Z,5.10
2023-03-12T15:28:56.393Z,4.90
2023-03-12T15:30:28.862Z,5.20
2023-03-12T15:32:00.954Z,5.57
2023-03-12T15:33:32.912Z,5.50
2023-03-12T15:35:13.393Z,5.40
2023-03-12T15:36:49.732Z,5.53
2023-03-12T15:38:23.378Z,5.80
2023-03-12T15:39:56.488Z,7.37
2023-03-12T15:41:42.863Z,6.60
2023-03-12T15:43:20.801Z,5.97
2023-03-12T15:44:59.617Z,6.50
2023-03-12T15:46:31.532Z,6.23
2023-03-12T15:48:14.241Z,7.00
2023-03-12T15:49:53.036Z,7.00
2023-03-12T15:51:36.346Z,7.10
2023-03-12T15:53:26.829Z,7.20
2023-03-12T15:55:30.791Z,7.00
2023-03-12T15:57:32.233Z,5.53
2023-03-12T15:59:26.108Z,6.33
2023-03-12T16:01:12.612Z,6.20
2023-03-12T16:02:49.937Z,7.80
2023-03-12T16:04:23.337Z,7.13
2023-03-12T16:05:57.140Z,5.90
2023-03-12T16:07:28.963Z,6.10
2023-03-12T16:09:03.990Z,6.80
2023-03-12T16:10:37.838Z,6.30
2023-03-12T16:12:10.574Z,7.00
2023-03-12T16:13:43.719Z,7.80
2023-03-12T16:15:38.817Z,7.77
2023-03-12T16:17:17.723Z,7.77
2023-03-12T16:18:49.410Z,7.43
2023-03-12T16:20:21.236Z,6.97
2023-03-12T16:21:52.938Z,7.07
2023-03-12T16:23:24.689Z,6.20
2023-03-12T16:24:56.377Z,6.10
2023-03-12T16:26:28.312Z,6.70
2023-03-12T16:28:03.139Z,6.30
2023-03-12T16:29:37.163Z,6.07
2023-03-12T16:31:15.912Z,6.07
2023-03-12T16:32:47.774Z,5.50
2023-03-12T16:34:19.731Z,6.13
2023-03-12T16:35:52.093Z,6.03
2023-03-12T16:37:25.481Z,5.53
2023-03-12T16:38:57.163Z,5.67
2023-03-12T16:40:33.900Z,5.23
2023-03-12T16:42:16.696Z,5.70
2023-03-12T16:43:51.171Z,5.27
2023-03-12T16:45:23.146Z,6.20
2023-03-12T16:46:54.959Z,5.33
2023-03-12T16:48:26.945Z,5.90
2023-03-12T16:49:58.850Z,5.40
2023-03-12T16:51:30.613Z,5.80
2023-03-12T16:53:03.786Z,5.17
2023-03-12T16:54:35.545Z,5.23
2023-03-12T16:56:14.230Z,5.53
2023-03-12T16:57:50.816Z,5.50
2023-03-12T16:59:26.986Z,5.30
2023-03-12T17:00:59.284Z,5.00
2023-03-12T17:02:31.475Z,5.10
2023-03-12T17:04:04.993Z,4.70
2023-03-12T17:05:36.821Z,5.80
2023-03-12T17:07:08.530Z,5.77
2023-03-12T17:08:40.321Z,5.80
2023-03-12T17:10:14.785Z,5.97
2023-03-12T17:11:50.399Z,5.07
2023-03-12T17:13:26.083Z,5.30
2023-03-12T17:14:58.881Z,5.30
2023-03-12T17:16:31.108Z,5.80
2023-03-12T17:18:04.326Z,5.37
2023-03-12T17:19:36.003Z,5.73
2023-03-12T17:21:12.086Z,5.30
2023-03-12T17:22:44.255Z,6.33
2023-03-12T17:24:16.479Z,5.27
2023-03-12T17:25:48.418Z,5.83
2023-03-12T17:27:20.178Z,4.97
2023-03-12T17:28:51.999Z,5.47
2023-03-12T17:30:24.408Z,5.30
2023-03-12T17:31:56.140Z,5.00
2023-03-12T17:33:28.011Z,5.80
2023-03-12T17:35:03.094Z,4.70
2023-03-12T17:36:37.725Z,4.47
2023-03-12T17:38:10.406Z,5.07
2023-03-12T17:39:42.139Z,4.87
2023-03-12T17:41:25.919Z,4.63
2023-03-12T17:42:58.132Z,4.13
2023-03-12T17:44:34.669Z,5.50
2023-03-12T17:46:07.549Z,5.60
2023-03-12T17:47:39.403Z,5.30
2023-03-12T17:49:11.136Z,3.83
2023-03-12T17:50:43.134Z,4.90
2023-03-12T17:52:14.835Z,4.80
2023-03-12T17:53:49.374Z,4.80
2023-03-12T17:55:21.057Z,4.30
2023-03-12T17:56:52.839Z,5.33
2023-03-12T17:58:24.738Z,5.27
2023-03-12T17:59:56.653Z,5.53
2023-03-12T18:01:28.417Z,5.70
2023-03-12T18:03:00.274Z,4.20
2023-03-12T18:04:32.149Z,6.00
2023-03-12T18:06:04.247Z,4.40
2023-03-12T18:07:36.324Z,4.80
2023-03-12T18:09:08.017Z,4.30
2023-03-12T18:10:40.662Z,4.87
2023-03-12T18:12:12.497Z,5.00
2023-03-12T18:13:46.413Z,4.70
2023-03-12T18:15:18.140Z,4.60
2023-03-12T18:16:49.933Z,4.67
2023-03-12T18:18:22.465Z,4.90
2023-03-12T18:19:54.145Z,5.63
2023-03-12T18:21:25.842Z,5.07
2023-03-12T18:22:57.534Z,4.27
2023-03-12T18:24:29.254Z,4.77
2023-03-12T18:26:01.113Z,4.67
2023-03-12T18:27:32.849Z,5.30
2023-03-12T18:29:04.982Z,3.90
2023-03-12T18:30:36.709Z,4.80
2023-03-12T18:32:09.008Z,5.33
2023-03-12T18:33:41.787Z,4.13
2023-03-12T18:35:13.481Z,5.10
2023-03-12T18:36:45.157Z,5.10
2023-03-12T18:38:16.877Z,4.73
2023-03-12T18:39:48.728Z,5.27
2023-03-12T18:41:20.564Z,4.43
2023-03-12T18:42:52.294Z,4.03
2023-03-12T18:44:24.092Z,5.27
2023-03-12T18:45:55.781Z,4.60
2023-03-12T18:47:27.738Z,4.40
2023-03-12T18:49:07.585Z,4.47
2023-03-12T18:50:39.598Z,3.83
2023-03-12T18:52:11.492Z,5.23
2023-03-12T18:53:45.914Z,4.63
2023-03-12T18:55:18.250Z,5.07
2023-03-12T18:56:50.280Z,4.47
2023-03-12T18:58:23.710Z,5.13
2023-03-12T18:59:56.996Z,3.60
2023-03-12T19:01:31.461Z,4.33
2023-03-12T19:03:03.361Z,5.23
2023-03-12T19:04:35.142Z,4.33
2023-03-12T19:06:10.005Z,4.43
2023-03-12T19:07:42.215Z,5.20
2023-03-12T19:09:14.241Z,3.93
2023-03-12T19:10:46.618Z,4.50
2023-03-12T19:12:18.315Z,4.23
2023-03-12T19:13:52.163Z,3.93
2023-03-12T19:15:24.479Z,4.67
2023-03-12T19:16:56.244Z,5.20
2023-03-12T19:18:29.022Z,4.43
2023-03-12T19:20:00.773Z,4.00
2023-03-12T19:21:32.530Z,4.20
2023-03-12T19:23:04.304Z,4.43
2023-03-12T19:24:36.055Z,5.77
2023-03-12T19:26:08.321Z,4.90
2023-03-12T19:27:40.736Z,5.00
2023-03-12T19:29:14.361Z,5.63
2023-03-12T19:30:55.246Z,5.77
2023-03-12T19:32:40.606Z,5.30
2023-03-12T19:34:18.398Z,4.37
2023-03-12T19:35:51.087Z,4.30
2023-03-12T19:37:22.867Z,4.63
2023-03-12T19:38:54.631Z,4.67
2023-03-12T19:40:28.425Z,4.53
2023-03-12T19:42:00.176Z,4.40
2023-03-12T19:43:32.058Z,4.60
2023-03-12T19:45:05.236Z,4.53
2023-03-12T19:46:37.646Z,4.33
2023-03-12T19:48:09.960Z,3.97
2023-03-12T19:49:41.712Z,5.90
2023-03-12T19:51:13.495Z,4.50
2023-03-12T19:52:45.606Z,5.33
2023-03-12T19:54:17.288Z,3.90
2023-03-12T19:55:49.598Z,5.10
2023-03-12T19:57:21.329Z,4.20
2023-03-12T19:58:52.999Z,4.17
2023-03-12T20:00:24.995Z,5.30
2023-03-12T20:01:56.813Z,5.10
2023-03-12T20:03:30.638Z,4.00
2023-03-12T20:05:03.309Z,4.60
2023-03-12T20:06:35.438Z,4.17
2023-03-12T20:08:07.156Z,5.20
2023-03-12T20:09:39.038Z,4.90
2023-03-12T20:11:10.988Z,4.27
2023-03-12T20:12:42.789Z,4.43
2023-03-12T20:14:14.564Z,4.57
2023-03-12T20:15:48.253Z,3.83
2023-03-12T20:17:19.941Z,4.80
2023-03-12T20:18:51.890Z,5.13
2023-03-12T20:20:24.252Z,4.93
2023-03-12T20:21:57.168Z,4.80
2023-03-12T20:23:28.944Z,4.60
2023-03-12T20:25:00.704Z,4.30
2023-03-12T20:26:32.381Z,4.37
2023-03-12T20:28:04.934Z,4.20
2023-03-12T20:29:36.847Z,5.10
2023-03-12T20:31:11.238Z,4.97
2023-03-12T20:32:43.032Z,4.90
2023-03-12T20:34:14.818Z,4.47
2023-03-12T20:35:48.102Z,4.73
2023-03-12T20:37:21.592Z,4.47
2023-03-12T20:38:53.485Z,4.47
2023-03-12T20:40:25.316Z,4.67
2023-03-12T20:41:57.024Z,4.67
2023-03-12T20:43:28.757Z,4.77
2023-03-12T20:45:00.610Z,3.67
2023-03-12T20:46:32.568Z,4.67
2023-03-12T20:48:04.514Z,5.00
2023-03-12T20:49:36.334Z,5.07
2023-03-12T20:51:08.173Z,4.37
2023-03-12T20:52:39.884Z,3.90
2023-03-12T20:54:11.943Z,4.90
2023-03-12T20:55:49.294Z,6.33
2023-03-12T20:57:21.164Z,5.07
2023-03-12T20:58:53.720Z,4.10
2023-03-12T21:00:25.508Z,4.13
2023-03-12T21:01:57.312Z,5.00
2023-03-12T21:03:29.230Z,3.97
2023-03-12T21:05:01.010Z,3.97
2023-03-12T21:06:32.846Z,4.10
2023-03-12T21:08:04.772Z,4.20
2023-03-12T21:09:36.717Z,4.20
2023-03-12T21:11:08.656Z,5.27
2023-03-12T21:12:41.479Z,3.87
2023-03-12T21:14:13.198Z,4.57
2023-03-12T21:15:45.251Z,3.60
2023-03-12T21:17:16.978Z,4.30
2023-03-12T21:18:54.605Z,4.60
2023-03-12T21:20:26.416Z,4.57
2023-03-12T21:21:58.181Z,4.63
2023-03-12T21:23:30.559Z,4.57
2023-03-12T21:25:02.911Z,4.20
2023-03-12T21:26:34.938Z,4.53
2023-03-12T21:28:08.402Z,4.30
2023-03-12T21:29:40.196Z,4.83
2023-03-12T21:31:14.924Z,4.30
2023-03-12T21:32:46.868Z,4.00
2023-03-12T21:34:18.598Z,4.30
2023-03-12T21:35:50.477Z,4.90
2023-03-12T21:37:24.784Z,4.40
2023-03-12T21:38:56.559Z,4.80
2023-03-12T21:40:28.309Z,4.20